sensor_id;sensor_type;location;lat;lon;timestamp;temperature;humidity
12233;DHT22;6179;51.748;8.728;2023-05-07T00:03:32;14.90;98.30
12233;DHT22;6179;51.748;8.728;2023-05-07T00:09:33;14.90;98.30
12233;DHT22;6179;51.748;8.728;2023-05-07T00:15:34;14.70;98.30
12233;DHT22;6179;51.748;8.728;2023-05-07T00:21:35;14.70;98.30
12233;DHT22;6179;51.748;8.728;2023-05-07T00:27:36;14.60;98.30
12233;DHT22;6179;51.748;8.728;2023-05-07T00:33:37;14.60;98.30
12233;DHT22;6179;51.748;8.728;2023-05-07T00:39:38;14.40;98.30
12233;DHT22;6179;51.748;8.728;2023-05-07T00:45:39;14.30;98.30
12233;DHT22;6179;51.748;8.728;2023-05-07T00:51:39;14.60;98.30
12233;DHT22;6179;51.748;8.728;2023-05-07T00:57:41;14.40;98.30
12233;DHT22;6179;51.748;8.728;2023-05-07T01:03:42;14.20;98.30
12233;DHT22;6179;51.748;8.728;2023-05-07T01:09:43;14.20;98.30
12233;DHT22;6179;51.748;8.728;2023-05-07T01:15:44;14.30;98.30
12233;DHT22;6179;51.748;8.728;2023-05-07T01:21:46;14.00;98.30
12233;DHT22;6179;51.748;8.728;2023-05-07T01:27:47;14.00;98.30
12233;DHT22;6179;51.748;8.728;2023-05-07T01:33:48;14.10;98.30
12233;DHT22;6179;51.748;8.728;2023-05-07T01:39:51;14.20;98.30
12233;DHT22;6179;51.748;8.728;2023-05-07T01:45:53;14.30;98.30
12233;DHT22;6179;51.748;8.728;2023-05-07T01:51:54;14.20;98.30
12233;DHT22;6179;51.748;8.728;2023-05-07T01:57:56;13.90;98.30
12233;DHT22;6179;51.748;8.728;2023-05-07T02:03:56;13.80;98.30
12233;DHT22;6179;51.748;8.728;2023-05-07T02:09:57;14.00;98.30
12233;DHT22;6179;51.748;8.728;2023-05-07T02:15:58;13.90;98.30
12233;DHT22;6179;51.748;8.728;2023-05-07T02:21:58;13.70;98.30
12233;DHT22;6179;51.748;8.728;2023-05-07T02:27:59;13.90;98.30
12233;DHT22;6179;51.748;8.728;2023-05-07T02:34:00;13.70;98.30
12233;DHT22;6179;51.748;8.728;2023-05-07T02:40:01;13.50;98.30
12233;DHT22;6179;51.748;8.728;2023-05-07T02:46:07;13.70;98.30
12233;DHT22;6179;51.748;8.728;2023-05-07T02:52:08;13.40;98.30
12233;DHT22;6179;51.748;8.728;2023-05-07T02:58:08;13.50;98.30
12233;DHT22;6179;51.748;8.728;2023-05-07T03:04:09;13.70;98.30
12233;DHT22;6179;51.748;8.728;2023-05-07T03:10:11;13.80;98.30
12233;DHT22;6179;51.748;8.728;2023-05-07T03:16:11;13.80;98.30
12233;DHT22;6179;51.748;8.728;2023-05-07T03:22:12;13.40;98.30
12233;DHT22;6179;51.748;8.728;2023-05-07T03:28:12;13.60;98.30
12233;DHT22;6179;51.748;8.728;2023-05-07T03:34:13;13.60;98.30
12233;DHT22;6179;51.748;8.728;2023-05-07T03:40:14;13.20;98.30
12233;DHT22;6179;51.748;8.728;2023-05-07T03:46:14;13.10;98.30
12233;DHT22;6179;51.748;8.728;2023-05-07T03:52:15;13.10;98.30
12233;DHT22;6179;51.748;8.728;2023-05-07T03:58:16;13.10;98.30
12233;DHT22;6179;51.748;8.728;2023-05-07T04:04:17;13.20;98.30
12233;DHT22;6179;51.748;8.728;2023-05-07T04:10:18;13.00;98.30
12233;DHT22;6179;51.748;8.728;2023-05-07T04:16:18;13.00;98.30
12233;DHT22;6179;51.748;8.728;2023-05-07T04:22:19;13.00;98.30
12233;DHT22;6179;51.748;8.728;2023-05-07T04:28:20;13.10;98.30
12233;DHT22;6179;51.748;8.728;2023-05-07T04:34:20;13.10;98.30
12233;DHT22;6179;51.748;8.728;2023-05-07T04:40:21;13.20;98.30
12233;DHT22;6179;51.748;8.728;2023-05-07T04:46:22;12.90;98.30
12233;DHT22;6179;51.748;8.728;2023-05-07T04:52:24;12.90;98.30
12233;DHT22;6179;51.748;8.728;2023-05-07T04:58:25;13.00;98.30
12233;DHT22;6179;51.748;8.728;2023-05-07T05:04:25;12.80;98.30
12233;DHT22;6179;51.748;8.728;2023-05-07T05:10:26;12.80;98.30
12233;DHT22;6179;51.748;8.728;2023-05-07T05:16:27;12.90;98.30
12233;DHT22;6179;51.748;8.728;2023-05-07T05:22:27;13.10;98.30
12233;DHT22;6179;51.748;8.728;2023-05-07T05:28:30;12.80;98.30
12233;DHT22;6179;51.748;8.728;2023-05-07T05:34:30;13.00;98.30
12233;DHT22;6179;51.748;8.728;2023-05-07T05:40:33;13.20;98.30
12233;DHT22;6179;51.748;8.728;2023-05-07T05:46:34;13.10;98.30
12233;DHT22;6179;51.748;8.728;2023-05-07T05:52:35;13.00;98.30
12233;DHT22;6179;51.748;8.728;2023-05-07T05:58:36;13.10;98.30
12233;DHT22;6179;51.748;8.728;2023-05-07T06:04:37;13.30;98.30
12233;DHT22;6179;51.748;8.728;2023-05-07T06:10:37;13.40;98.30
12233;DHT22;6179;51.748;8.728;2023-05-07T06:16:38;13.70;98.30
12233;DHT22;6179;51.748;8.728;2023-05-07T06:22:39;13.50;98.30
12233;DHT22;6179;51.748;8.728;2023-05-07T06:28:39;13.40;98.30
12233;DHT22;6179;51.748;8.728;2023-05-07T06:34:40;13.70;98.30
12233;DHT22;6179;51.748;8.728;2023-05-07T06:40:41;13.90;98.30
12233;DHT22;6179;51.748;8.728;2023-05-07T06:46:42;14.00;98.30
12233;DHT22;6179;51.748;8.728;2023-05-07T06:52:42;13.70;98.30
12233;DHT22;6179;51.748;8.728;2023-05-07T06:58:43;14.10;98.30
12233;DHT22;6179;51.748;8.728;2023-05-07T07:04:44;14.10;98.30
12233;DHT22;6179;51.748;8.728;2023-05-07T07:10:46;14.20;98.00
12233;DHT22;6179;51.748;8.728;2023-05-07T07:16:47;14.10;98.20
12233;DHT22;6179;51.748;8.728;2023-05-07T07:22:48;14.30;98.20
12233;DHT22;6179;51.748;8.728;2023-05-07T07:28:48;14.20;98.00
12233;DHT22;6179;51.748;8.728;2023-05-07T07:34:49;14.70;96.20
12233;DHT22;6179;51.748;8.728;2023-05-07T07:40:50;14.80;96.00
12233;DHT22;6179;51.748;8.728;2023-05-07T07:46:51;14.10;98.10
12233;DHT22;6179;51.748;8.728;2023-05-07T07:52:51;14.70;95.90
12233;DHT22;6179;51.748;8.728;2023-05-07T07:58:52;14.90;96.00
12233;DHT22;6179;51.748;8.728;2023-05-07T08:04:53;14.70;97.30
12233;DHT22;6179;51.748;8.728;2023-05-07T08:10:53;14.70;96.20
12233;DHT22;6179;51.748;8.728;2023-05-07T08:16:54;14.90;95.60
12233;DHT22;6179;51.748;8.728;2023-05-07T08:22:55;14.60;97.10
12233;DHT22;6179;51.748;8.728;2023-05-07T08:28:55;14.90;96.80
12233;DHT22;6179;51.748;8.728;2023-05-07T08:34:56;15.00;94.90
12233;DHT22;6179;51.748;8.728;2023-05-07T08:40:57;15.10;95.90
12233;DHT22;6179;51.748;8.728;2023-05-07T08:46:58;14.90;95.60
12233;DHT22;6179;51.748;8.728;2023-05-07T08:53:00;15.10;96.10
12233;DHT22;6179;51.748;8.728;2023-05-07T08:59:02;15.60;94.90
12233;DHT22;6179;51.748;8.728;2023-05-07T09:05:04;15.80;95.10
12233;DHT22;6179;51.748;8.728;2023-05-07T09:11:05;16.20;94.70
12233;DHT22;6179;51.748;8.728;2023-05-07T09:17:05;16.30;93.20
12233;DHT22;6179;51.748;8.728;2023-05-07T09:23:09;16.70;91.50
12233;DHT22;6179;51.748;8.728;2023-05-07T09:29:10;16.70;92.80
12233;DHT22;6179;51.748;8.728;2023-05-07T09:35:17;16.70;91.50
12233;DHT22;6179;51.748;8.728;2023-05-07T09:41:18;16.70;91.80
12233;DHT22;6179;51.748;8.728;2023-05-07T09:47:20;16.40;92.40
12233;DHT22;6179;51.748;8.728;2023-05-07T09:53:24;16.40;92.60
12233;DHT22;6179;51.748;8.728;2023-05-07T09:59:26;16.70;93.10
12233;DHT22;6179;51.748;8.728;2023-05-07T10:05:27;17.30;90.00
12233;DHT22;6179;51.748;8.728;2023-05-07T10:11:28;17.40;90.00
12233;DHT22;6179;51.748;8.728;2023-05-07T10:17:29;17.10;91.90
12233;DHT22;6179;51.748;8.728;2023-05-07T10:23:31;17.40;89.30
12233;DHT22;6179;51.748;8.728;2023-05-07T10:29:33;17.10;90.30
12233;DHT22;6179;51.748;8.728;2023-05-07T10:35:40;17.20;89.00
12233;DHT22;6179;51.748;8.728;2023-05-07T10:41:41;17.10;91.10
12233;DHT22;6179;51.748;8.728;2023-05-07T10:48:08;17.40;90.30
12233;DHT22;6179;51.748;8.728;2023-05-07T11:06:25;17.20;91.20
12233;DHT22;6179;51.748;8.728;2023-05-07T11:18:51;17.60;90.10
12233;DHT22;6179;51.748;8.728;2023-05-07T11:24:52;17.90;87.80
12233;DHT22;6179;51.748;8.728;2023-05-07T11:30:53;18.20;88.80
12233;DHT22;6179;51.748;8.728;2023-05-07T11:36:55;18.10;88.50
12233;DHT22;6179;51.748;8.728;2023-05-07T11:42:56;18.50;88.30
12233;DHT22;6179;51.748;8.728;2023-05-07T11:48:57;18.20;86.50
12233;DHT22;6179;51.748;8.728;2023-05-07T11:54:58;18.20;87.30
12233;DHT22;6179;51.748;8.728;2023-05-07T12:01:00;18.40;88.80
12233;DHT22;6179;51.748;8.728;2023-05-07T12:07:01;18.50;87.40
12233;DHT22;6179;51.748;8.728;2023-05-07T12:13:01;19.10;86.20
12233;DHT22;6179;51.748;8.728;2023-05-07T12:19:02;19.00;88.10
12233;DHT22;6179;51.748;8.728;2023-05-07T12:25:03;19.40;87.10
12233;DHT22;6179;51.748;8.728;2023-05-07T12:31:03;18.80;84.70
12233;DHT22;6179;51.748;8.728;2023-05-07T12:37:04;18.40;86.40
12233;DHT22;6179;51.748;8.728;2023-05-07T12:43:05;18.90;84.20
12233;DHT22;6179;51.748;8.728;2023-05-07T12:49:06;18.80;86.30
12233;DHT22;6179;51.748;8.728;2023-05-07T12:55:08;19.10;85.70
12233;DHT22;6179;51.748;8.728;2023-05-07T13:01:08;19.30;85.20
12233;DHT22;6179;51.748;8.728;2023-05-07T13:07:09;19.30;86.20
12233;DHT22;6179;51.748;8.728;2023-05-07T13:13:10;19.20;86.80
12233;DHT22;6179;51.748;8.728;2023-05-07T13:19:11;19.20;85.60
12233;DHT22;6179;51.748;8.728;2023-05-07T13:25:11;19.50;85.40
12233;DHT22;6179;51.748;8.728;2023-05-07T13:31:12;18.90;87.70
12233;DHT22;6179;51.748;8.728;2023-05-07T13:37:12;19.60;84.90
12233;DHT22;6179;51.748;8.728;2023-05-07T13:43:13;19.10;83.70
12233;DHT22;6179;51.748;8.728;2023-05-07T13:49:14;19.40;82.20
12233;DHT22;6179;51.748;8.728;2023-05-07T13:55:18;19.40;85.00
12233;DHT22;6179;51.748;8.728;2023-05-07T14:01:19;19.10;83.40
12233;DHT22;6179;51.748;8.728;2023-05-07T14:07:20;19.00;85.70
12233;DHT22;6179;51.748;8.728;2023-05-07T14:13:20;19.00;83.40
12233;DHT22;6179;51.748;8.728;2023-05-07T14:19:21;18.60;84.30
12233;DHT22;6179;51.748;8.728;2023-05-07T14:25:23;18.30;86.90
12233;DHT22;6179;51.748;8.728;2023-05-07T14:31:23;18.50;85.20
12233;DHT22;6179;51.748;8.728;2023-05-07T14:37:24;18.30;85.10
12233;DHT22;6179;51.748;8.728;2023-05-07T14:43:25;18.50;84.60
12233;DHT22;6179;51.748;8.728;2023-05-07T14:49:26;18.40;86.90
12233;DHT22;6179;51.748;8.728;2023-05-07T14:55:26;18.40;85.60
12233;DHT22;6179;51.748;8.728;2023-05-07T15:01:27;18.70;86.50
12233;DHT22;6179;51.748;8.728;2023-05-07T15:07:27;18.80;83.70
12233;DHT22;6179;51.748;8.728;2023-05-07T15:13:28;19.10;83.60
12233;DHT22;6179;51.748;8.728;2023-05-07T15:19:29;19.30;81.20
12233;DHT22;6179;51.748;8.728;2023-05-07T15:25:30;19.20;82.60
12233;DHT22;6179;51.748;8.728;2023-05-07T15:31:31;18.50;83.40
12233;DHT22;6179;51.748;8.728;2023-05-07T15:37:32;18.30;85.10
12233;DHT22;6179;51.748;8.728;2023-05-07T15:43:33;18.10;85.40
12233;DHT22;6179;51.748;8.728;2023-05-07T15:49:33;18.30;83.80
12233;DHT22;6179;51.748;8.728;2023-05-07T15:55:34;18.20;85.90
12233;DHT22;6179;51.748;8.728;2023-05-07T16:01:35;18.50;84.90
12233;DHT22;6179;51.748;8.728;2023-05-07T16:07:36;18.60;83.40
12233;DHT22;6179;51.748;8.728;2023-05-07T16:13:37;18.40;84.20
12233;DHT22;6179;51.748;8.728;2023-05-07T16:19:37;18.10;84.50
12233;DHT22;6179;51.748;8.728;2023-05-07T16:25:38;18.30;84.20
12233;DHT22;6179;51.748;8.728;2023-05-07T16:31:39;18.10;84.40
12233;DHT22;6179;51.748;8.728;2023-05-07T16:37:40;18.00;85.30
12233;DHT22;6179;51.748;8.728;2023-05-07T16:43:41;18.00;85.10
12233;DHT22;6179;51.748;8.728;2023-05-07T16:49:41;17.90;85.10
12233;DHT22;6179;51.748;8.728;2023-05-07T16:55:42;18.00;84.80
12233;DHT22;6179;51.748;8.728;2023-05-07T17:01:42;17.80;85.00
12233;DHT22;6179;51.748;8.728;2023-05-07T17:07:43;17.40;85.70
12233;DHT22;6179;51.748;8.728;2023-05-07T17:13:44;17.00;85.50
12233;DHT22;6179;51.748;8.728;2023-05-07T17:19:44;16.80;85.40
12233;DHT22;6179;51.748;8.728;2023-05-07T17:25:45;16.50;86.60
12233;DHT22;6179;51.748;8.728;2023-05-07T17:31:46;16.50;87.00
12233;DHT22;6179;51.748;8.728;2023-05-07T17:37:46;16.10;87.50
12233;DHT22;6179;51.748;8.728;2023-05-07T17:43:52;16.00;89.20
12233;DHT22;6179;51.748;8.728;2023-05-07T17:49:52;15.90;88.00
12233;DHT22;6179;51.748;8.728;2023-05-07T17:55:53;15.80;88.20
12233;DHT22;6179;51.748;8.728;2023-05-07T18:01:53;16.00;87.90
12233;DHT22;6179;51.748;8.728;2023-05-07T18:07:54;15.60;88.80
12233;DHT22;6179;51.748;8.728;2023-05-07T18:13:55;15.60;89.00
12233;DHT22;6179;51.748;8.728;2023-05-07T18:19:56;15.40;88.80
12233;DHT22;6179;51.748;8.728;2023-05-07T18:25:56;15.20;90.20
12233;DHT22;6179;51.748;8.728;2023-05-07T18:31:57;15.30;90.50
12233;DHT22;6179;51.748;8.728;2023-05-07T18:37:58;15.40;89.70
12233;DHT22;6179;51.748;8.728;2023-05-07T18:43:59;15.10;90.90
12233;DHT22;6179;51.748;8.728;2023-05-07T18:49:59;15.00;90.60
12233;DHT22;6179;51.748;8.728;2023-05-07T18:56:00;15.00;90.80
12233;DHT22;6179;51.748;8.728;2023-05-07T19:02:01;15.20;90.30
12233;DHT22;6179;51.748;8.728;2023-05-07T19:08:01;14.70;91.30
12233;DHT22;6179;51.748;8.728;2023-05-07T19:14:02;14.50;92.20
12233;DHT22;6179;51.748;8.728;2023-05-07T19:20:03;14.50;91.90
12233;DHT22;6179;51.748;8.728;2023-05-07T19:26:04;14.30;91.80
12233;DHT22;6179;51.748;8.728;2023-05-07T19:32:05;14.10;92.90
12233;DHT22;6179;51.748;8.728;2023-05-07T19:38:06;14.20;91.60
12233;DHT22;6179;51.748;8.728;2023-05-07T19:44:07;13.70;92.60
12233;DHT22;6179;51.748;8.728;2023-05-07T19:50:08;13.60;93.30
12233;DHT22;6179;51.748;8.728;2023-05-07T19:56:09;13.30;93.40
12233;DHT22;6179;51.748;8.728;2023-05-07T20:02:10;13.40;93.00
12233;DHT22;6179;51.748;8.728;2023-05-07T20:08:11;13.20;93.50
12233;DHT22;6179;51.748;8.728;2023-05-07T20:14:12;13.10;93.60
12233;DHT22;6179;51.748;8.728;2023-05-07T20:20:12;13.00;94.10
12233;DHT22;6179;51.748;8.728;2023-05-07T20:26:13;13.10;92.90
12233;DHT22;6179;51.748;8.728;2023-05-07T20:32:14;12.80;93.50
12233;DHT22;6179;51.748;8.728;2023-05-07T20:38:14;12.50;94.60
12233;DHT22;6179;51.748;8.728;2023-05-07T20:44:15;12.70;93.60
12233;DHT22;6179;51.748;8.728;2023-05-07T20:50:16;12.80;92.50
12233;DHT22;6179;51.748;8.728;2023-05-07T20:56:17;12.30;94.50
12233;DHT22;6179;51.748;8.728;2023-05-07T21:02:17;12.20;94.50
12233;DHT22;6179;51.748;8.728;2023-05-07T21:08:18;12.40;93.50
12233;DHT22;6179;51.748;8.728;2023-05-07T21:14:19;12.10;94.20
12233;DHT22;6179;51.748;8.728;2023-05-07T21:20:20;12.10;94.50
12233;DHT22;6179;51.748;8.728;2023-05-07T21:26:20;12.10;94.50
12233;DHT22;6179;51.748;8.728;2023-05-07T21:32:21;11.90;95.00
12233;DHT22;6179;51.748;8.728;2023-05-07T21:38:22;12.00;94.50
12233;DHT22;6179;51.748;8.728;2023-05-07T21:44:23;11.90;94.50
12233;DHT22;6179;51.748;8.728;2023-05-07T21:50:23;11.80;95.30
12233;DHT22;6179;51.748;8.728;2023-05-07T21:56:24;11.90;94.40
12233;DHT22;6179;51.748;8.728;2023-05-07T22:02:25;11.80;95.00
12233;DHT22;6179;51.748;8.728;2023-05-07T22:08:25;11.70;95.40
12233;DHT22;6179;51.748;8.728;2023-05-07T22:14:26;11.60;95.50
12233;DHT22;6179;51.748;8.728;2023-05-07T22:20:26;11.80;95.30
12233;DHT22;6179;51.748;8.728;2023-05-07T22:26:27;11.70;95.00
12233;DHT22;6179;51.748;8.728;2023-05-07T22:32:28;11.60;95.50
12233;DHT22;6179;51.748;8.728;2023-05-07T22:38:28;11.50;96.30
12233;DHT22;6179;51.748;8.728;2023-05-07T22:44:29;11.40;96.50
12233;DHT22;6179;51.748;8.728;2023-05-07T22:50:30;11.50;96.40
12233;DHT22;6179;51.748;8.728;2023-05-07T22:56:30;11.60;96.20
12233;DHT22;6179;51.748;8.728;2023-05-07T23:02:31;11.70;95.60
12233;DHT22;6179;51.748;8.728;2023-05-07T23:08:32;11.50;95.80
12233;DHT22;6179;51.748;8.728;2023-05-07T23:14:32;11.50;95.70
12233;DHT22;6179;51.748;8.728;2023-05-07T23:20:33;11.50;96.00
12233;DHT22;6179;51.748;8.728;2023-05-07T23:26:34;11.40;95.70
12233;DHT22;6179;51.748;8.728;2023-05-07T23:32:34;11.50;96.00
12233;DHT22;6179;51.748;8.728;2023-05-07T23:38:35;11.50;96.00
12233;DHT22;6179;51.748;8.728;2023-05-07T23:44:36;11.20;97.00
12233;DHT22;6179;51.748;8.728;2023-05-07T23:50:36;11.40;96.30
12233;DHT22;6179;51.748;8.728;2023-05-07T23:56:37;11.50;96.40
